sensor_id;sensor_type;location;lat;lon;timestamp;P1;P2;P0
58740;PMS7003;44512;53.046;18.604;2023-03-05T00:04:26;19;15;10
58740;PMS7003;44512;53.046;18.604;2023-03-05T00:14:54;18;12;9
58740;PMS7003;44512;53.046;18.604;2023-03-05T00:25:23;18;13;9
58740;PMS7003;44512;53.046;18.604;2023-03-05T00:35:51;15;10;7
58740;PMS7003;44512;53.046;18.604;2023-03-05T00:46:20;10;7;5
58740;PMS7003;44512;53.046;18.604;2023-03-05T00:56:48;4;3;1
58740;PMS7003;44512;53.046;18.604;2023-03-05T01:07:17;11;8;5
58740;PMS7003;44512;53.046;18.604;2023-03-05T01:17:45;10;8;5
58740;PMS7003;44512;53.046;18.604;2023-03-05T01:28:13;11;8;6
58740;PMS7003;44512;53.046;18.604;2023-03-05T01:38:42;19;10;7
58740;PMS7003;44512;53.046;18.604;2023-03-05T01:59:39;8;6;4
58740;PMS7003;44512;53.046;18.604;2023-03-05T02:31:23;12;7;5
58740;PMS7003;44512;53.046;18.604;2023-03-05T02:41:33;6;5;3
58740;PMS7003;44512;53.046;18.604;2023-03-05T02:52:01;11;3;2
58740;PMS7003;44512;53.046;18.604;2023-03-05T03:02:30;7;6;3
58740;PMS7003;44512;53.046;18.604;2023-03-05T03:12:58;5;3;2
58740;PMS7003;44512;53.046;18.604;2023-03-05T03:23:27;5;4;3
58740;PMS7003;44512;53.046;18.604;2023-03-05T03:33:55;5;3;3
58740;PMS7003;44512;53.046;18.604;2023-03-05T03:44:23;6;4;3
58740;PMS7003;44512;53.046;18.604;2023-03-05T03:54:52;4;4;4
58740;PMS7003;44512;53.046;18.604;2023-03-05T04:05:20;7;4;2
58740;PMS7003;44512;53.046;18.604;2023-03-05T04:15:48;8;5;4
58740;PMS7003;44512;53.046;18.604;2023-03-05T04:26:17;5;4;3
58740;PMS7003;44512;53.046;18.604;2023-03-05T04:36:45;1;0;0
58740;PMS7003;44512;53.046;18.604;2023-03-05T04:47:14;1;1;0
58740;PMS7003;44512;53.046;18.604;2023-03-05T04:57:42;5;3;3
58740;PMS7003;44512;53.046;18.604;2023-03-05T05:08:11;10;6;4
58740;PMS7003;44512;53.046;18.604;2023-03-05T05:18:39;22;17;11
58740;PMS7003;44512;53.046;18.604;2023-03-05T05:29:08;5;4;2
58740;PMS7003;44512;53.046;18.604;2023-03-05T05:39:36;10;8;5
58740;PMS7003;44512;53.046;18.604;2023-03-05T05:50:05;7;5;5
58740;PMS7003;44512;53.046;18.604;2023-03-05T06:00:33;8;6;4
58740;PMS7003;44512;53.046;18.604;2023-03-05T06:11:01;12;6;4
58740;PMS7003;44512;53.046;18.604;2023-03-05T06:21:30;9;8;6
58740;PMS7003;44512;53.046;18.604;2023-03-05T06:31:58;10;8;6
58740;PMS7003;44512;53.046;18.604;2023-03-05T06:42:27;6;5;4
58740;PMS7003;44512;53.046;18.604;2023-03-05T06:52:55;5;4;2
58740;PMS7003;44512;53.046;18.604;2023-03-05T07:03:23;9;7;5
58740;PMS7003;44512;53.046;18.604;2023-03-05T07:13:52;7;4;3
58740;PMS7003;44512;53.046;18.604;2023-03-05T07:24:20;10;6;4
58740;PMS7003;44512;53.046;18.604;2023-03-05T07:34:49;5;4;2
58740;PMS7003;44512;53.046;18.604;2023-03-05T07:45:17;7;7;4
58740;PMS7003;44512;53.046;18.604;2023-03-05T07:55:46;12;10;7
58740;PMS7003;44512;53.046;18.604;2023-03-05T08:06:14;8;6;4
58740;PMS7003;44512;53.046;18.604;2023-03-05T08:16:43;13;9;6
58740;PMS7003;44512;53.046;18.604;2023-03-05T08:27:11;5;3;2
58740;PMS7003;44512;53.046;18.604;2023-03-05T08:37:39;10;9;7
58740;PMS7003;44512;53.046;18.604;2023-03-05T08:48:08;14;11;8
58740;PMS7003;44512;53.046;18.604;2023-03-05T08:58:36;13;10;8
58740;PMS7003;44512;53.046;18.604;2023-03-05T09:09:08;8;4;3
58740;PMS7003;44512;53.046;18.604;2023-03-05T09:19:33;6;5;4
58740;PMS7003;44512;53.046;18.604;2023-03-05T09:35:11;5;3;3
58740;PMS7003;44512;53.046;18.604;2023-03-05T09:56:11;6;5;3
58740;PMS7003;44512;53.046;18.604;2023-03-05T10:06:55;5;3;3
58740;PMS7003;44512;53.046;18.604;2023-03-05T10:17:26;9;7;5
58740;PMS7003;44512;53.046;18.604;2023-03-05T10:58:58;8;8;5
58740;PMS7003;44512;53.046;18.604;2023-03-05T11:09:28;6;3;3
58740;PMS7003;44512;53.046;18.604;2023-03-05T11:19:56;7;6;4
58740;PMS7003;44512;53.046;18.604;2023-03-05T11:40:53;10;8;6
58740;PMS7003;44512;53.046;18.604;2023-03-05T12:01:50;11;8;6
58740;PMS7003;44512;53.046;18.604;2023-03-05T12:22:46;8;5;5
58740;PMS7003;44512;53.046;18.604;2023-03-05T12:43:42;6;5;4
58740;PMS7003;44512;53.046;18.604;2023-03-05T13:04:40;14;11;8
58740;PMS7003;44512;53.046;18.604;2023-03-05T13:15:12;6;6;4
58740;PMS7003;44512;53.046;18.604;2023-03-05T13:25:36;9;8;6
58740;PMS7003;44512;53.046;18.604;2023-03-05T13:36:05;7;5;4
58740;PMS7003;44512;53.046;18.604;2023-03-05T13:46:34;11;6;4
58740;PMS7003;44512;53.046;18.604;2023-03-05T13:57:02;4;4;3
58740;PMS7003;44512;53.046;18.604;2023-03-05T14:28:27;5;1;1
58740;PMS7003;44512;53.046;18.604;2023-03-05T14:38:55;5;4;3
58740;PMS7003;44512;53.046;18.604;2023-03-05T14:49:23;2;2;1
58740;PMS7003;44512;53.046;18.604;2023-03-05T14:59:52;1;0;0
58740;PMS7003;44512;53.046;18.604;2023-03-05T15:10:22;1;0;0
58740;PMS7003;44512;53.046;18.604;2023-03-05T15:20:49;1;0;0
58740;PMS7003;44512;53.046;18.604;2023-03-05T15:31:17;1;0;0
58740;PMS7003;44512;53.046;18.604;2023-03-05T15:41:45;1;0;0
58740;PMS7003;44512;53.046;18.604;2023-03-05T15:52:14;32;28;19
58740;PMS7003;44512;53.046;18.604;2023-03-05T16:02:42;13;5;3
58740;PMS7003;44512;53.046;18.604;2023-03-05T16:13:12;15;11;8
58740;PMS7003;44512;53.046;18.604;2023-03-05T16:23:39;4;2;2
58740;PMS7003;44512;53.046;18.604;2023-03-05T16:34:08;2;2;1
58740;PMS7003;44512;53.046;18.604;2023-03-05T16:44:36;7;5;3
58740;PMS7003;44512;53.046;18.604;2023-03-05T16:55:05;11;9;7
58740;PMS7003;44512;53.046;18.604;2023-03-05T17:05:36;14;8;6
58740;PMS7003;44512;53.046;18.604;2023-03-05T17:16:02;12;9;6
58740;PMS7003;44512;53.046;18.604;2023-03-05T17:26:30;14;10;7
58740;PMS7003;44512;53.046;18.604;2023-03-05T17:36:59;11;9;7
58740;PMS7003;44512;53.046;18.604;2023-03-05T17:47:26;16;12;9
58740;PMS7003;44512;53.046;18.604;2023-03-05T17:57:55;19;15;12
58740;PMS7003;44512;53.046;18.604;2023-03-05T18:08:24;22;19;15
58740;PMS7003;44512;53.046;18.604;2023-03-05T18:18:52;16;14;11
58740;PMS7003;44512;53.046;18.604;2023-03-05T18:29:20;32;27;18
58740;PMS7003;44512;53.046;18.604;2023-03-05T18:39:49;59;41;26
58740;PMS7003;44512;53.046;18.604;2023-03-05T18:50:17;34;26;17
58740;PMS7003;44512;53.046;18.604;2023-03-05T19:00:46;50;38;23
58740;PMS7003;44512;53.046;18.604;2023-03-05T19:11:15;53;40;25
58740;PMS7003;44512;53.046;18.604;2023-03-05T19:21:43;58;42;27
58740;PMS7003;44512;53.046;18.604;2023-03-05T19:32:12;44;35;22
58740;PMS7003;44512;53.046;18.604;2023-03-05T19:42:40;41;30;21
58740;PMS7003;44512;53.046;18.604;2023-03-05T19:53:08;43;36;22
58740;PMS7003;44512;53.046;18.604;2023-03-05T20:03:36;53;40;28
58740;PMS7003;44512;53.046;18.604;2023-03-05T20:14:05;56;44;29
58740;PMS7003;44512;53.046;18.604;2023-03-05T20:24:33;51;38;25
58740;PMS7003;44512;53.046;18.604;2023-03-05T20:35:02;42;34;25
58740;PMS7003;44512;53.046;18.604;2023-03-05T20:45:32;39;31;22
58740;PMS7003;44512;53.046;18.604;2023-03-05T20:55:59;33;28;20
58740;PMS7003;44512;53.046;18.604;2023-03-05T21:06:28;32;24;16
58740;PMS7003;44512;53.046;18.604;2023-03-05T21:16:56;40;29;20
58740;PMS7003;44512;53.046;18.604;2023-03-05T21:27:24;30;26;18
58740;PMS7003;44512;53.046;18.604;2023-03-05T21:37:53;28;25;17
58740;PMS7003;44512;53.046;18.604;2023-03-05T21:48:21;27;22;14
58740;PMS7003;44512;53.046;18.604;2023-03-05T21:58:50;22;20;13
58740;PMS7003;44512;53.046;18.604;2023-03-05T22:09:18;35;26;18
58740;PMS7003;44512;53.046;18.604;2023-03-05T22:19:47;10;6;4
58740;PMS7003;44512;53.046;18.604;2023-03-05T22:30:15;28;20;13
58740;PMS7003;44512;53.046;18.604;2023-03-05T22:40:44;32;24;16
58740;PMS7003;44512;53.046;18.604;2023-03-05T22:51:12;27;16;12
58740;PMS7003;44512;53.046;18.604;2023-03-05T23:01:40;27;19;12
58740;PMS7003;44512;53.046;18.604;2023-03-05T23:12:10;24;19;13
58740;PMS7003;44512;53.046;18.604;2023-03-05T23:22:38;13;10;7
58740;PMS7003;44512;53.046;18.604;2023-03-05T23:33:16;19;13;10
58740;PMS7003;44512;53.046;18.604;2023-03-05T23:43:34;12;12;9
58740;PMS7003;44512;53.046;18.604;2023-03-05T23:54:03;14;10;7
